createdAt,value
2019-03-11T00:00:50.258Z,3.08
2019-03-11T00:06:08.857Z,3.15
2019-03-11T00:11:27.763Z,3.13
2019-03-11T00:16:46.547Z,3.03
2019-03-11T00:22:05.358Z,2.81
2019-03-11T00:27:23.911Z,2.80
2019-03-11T00:32:42.637Z,2.61
2019-03-11T00:38:01.248Z,2.66
2019-03-11T00:43:19.863Z,2.70
2019-03-11T00:48:38.631Z,2.76
2019-03-11T00:53:57.326Z,3.05
2019-03-11T00:59:15.887Z,3.05
2019-03-11T01:04:34.492Z,3.13
2019-03-11T01:09:53.133Z,3.18
2019-03-11T01:15:12.341Z,3.32
2019-03-11T01:20:30.814Z,3.27
2019-03-11T01:25:50.885Z,3.20
2019-03-11T01:31:09.536Z,3.13
2019-03-11T01:36:28.027Z,3.06
2019-03-11T01:41:46.540Z,2.99
2019-03-11T01:47:05.167Z,2.96
2019-03-11T01:52:23.652Z,2.92
2019-03-11T01:57:42.183Z,2.87
2019-03-11T02:03:00.706Z,2.87
2019-03-11T02:08:19.329Z,2.84
2019-03-11T02:13:37.898Z,2.81
2019-03-11T02:18:56.488Z,2.79
2019-03-11T02:24:14.956Z,2.79
2019-03-11T02:29:33.443Z,2.80
2019-03-11T02:34:51.997Z,2.80
2019-03-11T02:40:13.029Z,2.76
2019-03-11T02:45:32.213Z,2.70
2019-03-11T02:50:50.673Z,2.61
2019-03-11T02:56:09.294Z,2.59
2019-03-11T03:01:41.743Z,2.63
2019-03-11T03:07:00.359Z,2.63
2019-03-11T03:12:18.915Z,2.66
2019-03-11T03:17:37.437Z,2.56
2019-03-11T03:22:56.065Z,2.53
2019-03-11T03:28:14.598Z,2.60
2019-03-11T03:33:33.159Z,2.51
2019-03-11T03:38:51.657Z,2.50
2019-03-11T03:44:10.542Z,2.48
2019-03-11T03:49:29.187Z,2.33
2019-03-11T03:54:47.755Z,2.32
2019-03-11T04:00:08.652Z,2.25
2019-03-11T04:05:27.287Z,2.16
2019-03-11T04:10:46.003Z,2.17
2019-03-11T04:16:04.914Z,2.27
2019-03-11T04:21:23.626Z,2.30
2019-03-11T04:26:55.296Z,2.36
2019-03-11T04:32:05.433Z,2.46
2019-03-11T04:37:23.974Z,2.14
2019-03-11T04:42:42.901Z,1.99
2019-03-11T04:48:01.443Z,1.82
2019-03-11T04:53:20.005Z,1.94
2019-03-11T04:58:38.623Z,2.03
2019-03-11T05:03:57.095Z,2.14
2019-03-11T05:09:15.647Z,2.24
2019-03-11T05:14:34.202Z,2.22
2019-03-11T05:19:52.772Z,2.11
2019-03-11T05:25:14.827Z,2.14
2019-03-11T05:30:33.543Z,2.09
2019-03-11T05:35:52.064Z,2.16
2019-03-11T05:41:10.670Z,2.13
2019-03-11T05:46:29.151Z,2.13
2019-03-11T05:51:47.773Z,2.17
2019-03-11T05:57:06.406Z,2.15
2019-03-11T06:02:24.883Z,2.17
2019-03-11T06:07:43.492Z,2.16
2019-03-11T06:13:02.138Z,1.93
2019-03-11T06:18:34.305Z,1.81
2019-03-11T06:23:53.062Z,1.75
2019-03-11T06:29:11.672Z,1.72
2019-03-11T06:34:30.155Z,1.69
2019-03-11T06:39:48.620Z,1.36
2019-03-11T06:45:10.258Z,0.98
2019-03-11T06:50:28.860Z,0.63
2019-03-11T06:55:47.402Z,0.64
2019-03-11T07:01:06.279Z,0.66
2019-03-11T07:06:24.831Z,0.71
2019-03-11T07:11:43.449Z,0.73
2019-03-11T07:17:02.016Z,0.76
2019-03-11T07:22:20.616Z,0.84
2019-03-11T07:27:39.157Z,0.93
2019-03-11T07:32:57.960Z,1.17
2019-03-11T07:38:16.550Z,1.28
2019-03-11T07:43:35.025Z,1.35
2019-03-11T07:48:53.555Z,1.33
2019-03-11T07:54:12.541Z,1.32
2019-03-11T07:59:31.218Z,1.43
2019-03-11T08:04:49.700Z,1.48
2019-03-11T08:10:24.171Z,1.57
2019-03-11T08:15:42.648Z,1.66
2019-03-11T08:21:01.345Z,1.69
2019-03-11T08:26:19.885Z,1.67
2019-03-11T08:31:38.540Z,1.72
2019-03-11T08:36:57.140Z,2.08
2019-03-11T08:42:15.851Z,2.08
2019-03-11T08:47:34.468Z,2.16
2019-03-11T08:52:53.071Z,2.17
2019-03-11T08:58:11.739Z,2.52
2019-03-11T09:03:30.621Z,2.81
2019-03-11T09:08:49.276Z,3.21
2019-03-11T09:14:07.878Z,3.00
2019-03-11T09:19:26.637Z,2.64
2019-03-11T09:24:45.290Z,2.83
2019-03-11T09:30:05.938Z,2.82
2019-03-11T09:35:24.584Z,3.11
2019-03-11T09:40:43.205Z,3.64
2019-03-11T09:46:01.852Z,3.82
2019-03-11T09:51:20.749Z,3.62
2019-03-11T09:56:43.132Z,3.54
2019-03-11T10:02:00.128Z,3.71
2019-03-11T10:07:18.973Z,4.39
2019-03-11T10:12:37.621Z,4.39
2019-03-11T10:17:56.363Z,4.03
2019-03-11T10:23:14.898Z,3.95
2019-03-11T10:28:33.577Z,4.21
2019-03-11T10:33:52.246Z,4.43
2019-03-11T10:39:11.750Z,4.71
2019-03-11T10:44:30.608Z,4.92
2019-03-11T10:49:49.263Z,5.03
2019-03-11T13:02:05.695Z,6.63
2019-03-11T13:07:24.395Z,7.15
2019-03-11T13:12:43.022Z,7.19
2019-03-11T13:18:30.152Z,7.02
2019-03-11T13:23:48.715Z,6.47
2019-03-11T13:29:07.389Z,6.17
2019-03-11T13:34:25.987Z,6.23
2019-03-11T13:39:44.542Z,6.19
2019-03-11T13:45:03.075Z,6.33
2019-03-11T13:50:21.674Z,6.56
2019-03-11T14:01:15.814Z,5.82
2019-03-11T14:06:34.444Z,4.53
2019-03-11T14:11:52.979Z,4.90
2019-03-11T14:17:11.607Z,4.96
2019-03-11T14:22:30.290Z,5.05
2019-03-11T14:27:48.829Z,4.93
2019-03-11T14:33:07.377Z,5.01
2019-03-11T14:56:07.727Z,5.70
2019-03-11T15:01:26.354Z,6.09
2019-03-11T16:36:34.640Z,5.22
2019-03-11T18:30:45.370Z,3.97
2019-03-11T18:36:04.002Z,3.91
2019-03-11T18:41:22.691Z,3.88
2019-03-11T19:39:49.856Z,3.48
